»·PEaware :: AIB1 KGEG-KBFI

AIB1 :: KGEG-KBFI

FLIGHT INFORMATION

Flight Status: Arrived
Operator:
Airbus Industrie
More flights by this operator :: More flights under this callsign
Pilot: Anonymous 18910 (18910)
Aircraft: AIRBUS A320
(A320)
More flights by this aircraft type
Origin: KGEG Spokane Intl
United States
Destination: KBFI Boeing Field/King Co Intl
United States
More flights between these airports :: More routes between these airports
Route: GEG3 GEG GLASR GLASR1
File this flight plan on PilotEdge
Remarks:
Altitude:
(Current/Filed)
24,000ft
Speed:
(Current/Filed)
350kts
Departed: 03-Jun-18 05:25 PM
Arrived: 03-Jun-18 06:09 PM
Distance/Time
Traveled:
193nm/0:44
Distance/Time
To Go:
Arrived

Flight Plot

Page will automatically refresh every two minutes.

Flight plan parsing failed; only flown route is shown


Map Options




Map Legend


Flown Route
Filed Route
Departure Airport
Arrival Airport
Navaid (VOR, NDB)
Fix

Horizontal Profiles

Position Reports

Time Latitude Longitude Heading Altitude Ground
Speed
03-Jun-18 17:07 47.622690 -117.541989 90 2365ft 0kts
03-Jun-18 17:08 47.622690 -117.541989 90 2365ft 0kts
03-Jun-18 17:09 47.622690 -117.541989 90 2365ft 0kts
03-Jun-18 17:10 47.622690 -117.541989 90 2365ft 0kts
03-Jun-18 17:11 47.622690 -117.541989 90 2365ft 0kts
03-Jun-18 17:12 47.622690 -117.541989 90 2365ft 0kts
03-Jun-18 17:13 47.622690 -117.541989 90 2365ft 0kts
03-Jun-18 17:14 47.622690 -117.541989 90 2365ft 0kts
03-Jun-18 17:15 47.622690 -117.541989 90 2365ft 0kts
03-Jun-18 17:16 47.622690 -117.541989 90 2365ft 0kts
03-Jun-18 17:17 47.622690 -117.541989 90 2365ft 0kts
03-Jun-18 17:18 47.622690 -117.541989 90 2365ft 0kts
03-Jun-18 17:19 47.622690 -117.541989 90 2365ft 0kts
03-Jun-18 17:20 47.622711 -117.539995 88 2365ft 5kts
03-Jun-18 17:21 47.622640 -117.538255 116 2362ft 11kts
03-Jun-18 17:22 47.621599 -117.536699 58 2360ft 11kts
03-Jun-18 17:23 47.627031 -117.528691 40 2351ft 23kts
03-Jun-18 17:24 47.632054 -117.521065 46 2330ft 18kts
03-Jun-18 17:25 47.629621 -117.520597 226 2334ft 61kts
03-Jun-18 17:26 47.597089 -117.568612 224 4278ft 221kts
03-Jun-18 17:27 47.566257 -117.658053 251 7660ft 273kts
03-Jun-18 17:28 47.578154 -117.768160 284 11892ft 286kts
03-Jun-18 17:29 47.606578 -117.881927 274 15173ft 309kts
03-Jun-18 17:30 47.565082 -117.992403 228 16775ft 352kts
03-Jun-18 17:31 47.545805 -118.143346 277 17822ft 417kts
03-Jun-18 17:32 47.568107 -118.313118 276 19659ft 428kts
03-Jun-18 17:33 47.588731 -118.487554 274 21338ft 436kts
03-Jun-18 17:34 47.607410 -118.659101 274 22788ft 444kts
03-Jun-18 17:35 47.626493 -118.835643 273 23875ft 446kts
03-Jun-18 17:36 47.645830 -119.017230 273 23896ft 449kts
03-Jun-18 17:37 47.664933 -119.199424 273 23906ft 449kts
03-Jun-18 17:38 47.683795 -119.382107 273 23915ft 448kts
03-Jun-18 17:39 47.702222 -119.563528 273 23914ft 449kts
03-Jun-18 17:40 47.719356 -119.734872 273 23915ft 448kts
03-Jun-18 17:41 47.736926 -119.913463 273 23932ft 447kts
03-Jun-18 17:42 47.754475 -120.094848 273 23942ft 446kts
03-Jun-18 17:43 47.771741 -120.276416 273 23942ft 446kts
03-Jun-18 17:44 47.788230 -120.452779 273 23941ft 446kts
03-Jun-18 17:45 47.804729 -120.632338 273 23941ft 446kts
03-Jun-18 17:46 47.818921 -120.789228 272 22401ft 434kts
03-Jun-18 17:47 47.832835 -120.945694 272 20018ft 415kts
03-Jun-18 17:48 47.846425 -121.100859 273 17668ft 394kts
03-Jun-18 17:49 47.858260 -121.254402 272 15244ft 373kts
03-Jun-18 17:50 47.866846 -121.388370 272 12951ft 360kts
03-Jun-18 17:51 47.875072 -121.518962 272 12071ft 314kts
03-Jun-18 17:52 47.882308 -121.636814 271 12053ft 276kts
03-Jun-18 17:53 47.873198 -121.721712 227 12057ft 269kts
03-Jun-18 17:54 47.824187 -121.788549 223 11651ft 268kts
03-Jun-18 17:55 47.774298 -121.855834 223 10031ft 270kts
03-Jun-18 17:56 47.720018 -121.929004 223 8420ft 268kts
03-Jun-18 17:57 47.666161 -122.001451 222 6852ft 265kts
03-Jun-18 17:58 47.614366 -122.070915 222 4800ft 256kts
03-Jun-18 17:59 47.563714 -122.138717 222 3054ft 258kts
03-Jun-18 18:00 47.506730 -122.193524 186 3185ft 250kts
03-Jun-18 18:01 47.446906 -122.175384 146 3017ft 216kts
03-Jun-18 18:02 47.414187 -122.111743 126 3019ft 214kts
03-Jun-18 18:03 47.369683 -122.077294 216 3023ft 205kts
03-Jun-18 18:04 47.376053 -122.143247 307 3019ft 189kts
03-Jun-18 18:05 47.410981 -122.200111 323 3015ft 189kts
03-Jun-18 18:06 47.451016 -122.235663 328 2099ft 176kts
03-Jun-18 18:07 47.486171 -122.264691 328 931ft 135kts
03-Jun-18 18:08 47.515895 -122.290431 328 151ft 128kts
03-Jun-18 18:09 47.533381 -122.305313 343 24ft 18kts
03-Jun-18 18:10 47.533865 -122.304798 84 25ft 0kts

Navigation Log

Ident Type
Flight plan parsing failed, navigation log unavailable